sensor_id;sensor_type;location;lat;lon;timestamp;pressure;altitude;pressure_sealevel;temperature;humidity
28167;BME280;15455;53.376;-6.262;2023-05-14T00:00:13;102093.69;;;9.97;100.00
28167;BME280;15455;53.376;-6.262;2023-05-14T00:02:59;102091.34;;;10.11;100.00
28167;BME280;15455;53.376;-6.262;2023-05-14T00:05:47;102086.44;;;10.24;100.00
28167;BME280;15455;53.376;-6.262;2023-05-14T00:08:32;102084.97;;;10.37;100.00
28167;BME280;15455;53.376;-6.262;2023-05-14T00:11:18;102083.56;;;10.53;100.00
28167;BME280;15455;53.376;-6.262;2023-05-14T00:14:05;102085.47;;;10.62;100.00
28167;BME280;15455;53.376;-6.262;2023-05-14T00:16:50;102079.59;;;10.75;100.00
28167;BME280;15455;53.376;-6.262;2023-05-14T00:19:36;102066.53;;;10.75;100.00
28167;BME280;15455;53.376;-6.262;2023-05-14T00:22:24;102061.38;;;10.78;100.00
28167;BME280;15455;53.376;-6.262;2023-05-14T00:25:09;102048.31;;;10.78;100.00
28167;BME280;15455;53.376;-6.262;2023-05-14T00:27:55;102053.63;;;10.83;100.00
28167;BME280;15455;53.376;-6.262;2023-05-14T00:30:43;102046.69;;;10.85;100.00
28167;BME280;15455;53.376;-6.262;2023-05-14T00:33:28;102040.53;;;10.82;100.00
28167;BME280;15455;53.376;-6.262;2023-05-14T00:36:14;102037.06;;;10.81;100.00
28167;BME280;15455;53.376;-6.262;2023-05-14T00:39:00;102034.41;;;10.80;100.00
28167;BME280;15455;53.376;-6.262;2023-05-14T00:41:45;102026.38;;;10.69;100.00
28167;BME280;15455;53.376;-6.262;2023-05-14T00:44:31;102027.09;;;10.60;100.00
28167;BME280;15455;53.376;-6.262;2023-05-14T00:47:17;102024.41;;;10.55;100.00
28167;BME280;15455;53.376;-6.262;2023-05-14T00:50:03;102017.53;;;10.59;100.00
28167;BME280;15455;53.376;-6.262;2023-05-14T00:52:48;102017.53;;;10.59;100.00
28167;BME280;15455;53.376;-6.262;2023-05-14T00:55:38;102010.56;;;10.59;100.00
28167;BME280;15455;53.376;-6.262;2023-05-14T00:58:24;102003.59;;;10.60;100.00
28167;BME280;15455;53.376;-6.262;2023-05-14T01:01:10;102001.84;;;10.57;100.00
28167;BME280;15455;53.376;-6.262;2023-05-14T01:03:59;101999.22;;;10.57;100.00
28167;BME280;15455;53.376;-6.262;2023-05-14T01:07:07;101997.50;;;10.59;100.00
28167;BME280;15455;53.376;-6.262;2023-05-14T01:10:38;101988.94;;;10.67;100.00
28167;BME280;15455;53.376;-6.262;2023-05-14T01:13:40;101996.00;;;10.72;100.00
28167;BME280;15455;53.376;-6.262;2023-05-14T01:16:29;101980.34;;;10.74;100.00
28167;BME280;15455;53.376;-6.262;2023-05-14T01:19:21;101970.84;;;10.77;100.00
28167;BME280;15455;53.376;-6.262;2023-05-14T01:22:10;101975.19;;;10.78;100.00
28167;BME280;15455;53.376;-6.262;2023-05-14T01:24:56;101973.56;;;10.84;100.00
28167;BME280;15455;53.376;-6.262;2023-05-14T01:30:39;101962.25;;;10.85;100.00
28167;BME280;15455;53.376;-6.262;2023-05-14T01:33:28;101953.47;;;10.81;100.00
28167;BME280;15455;53.376;-6.262;2023-05-14T01:36:14;101949.09;;;10.78;100.00
28167;BME280;15455;53.376;-6.262;2023-05-14T01:39:00;101948.19;;;10.76;100.00
28167;BME280;15455;53.376;-6.262;2023-05-14T01:41:48;101947.28;;;10.76;100.00
28167;BME280;15455;53.376;-6.262;2023-05-14T01:44:35;101944.63;;;10.71;100.00
28167;BME280;15455;53.376;-6.262;2023-05-14T01:47:21;101939.34;;;10.68;100.00
28167;BME280;15455;53.376;-6.262;2023-05-14T01:50:07;101935.84;;;10.66;100.00
28167;BME280;15455;53.376;-6.262;2023-05-14T01:52:52;101935.81;;;10.65;100.00
28167;BME280;15455;53.376;-6.262;2023-05-14T01:55:41;101941.88;;;10.62;100.00
28167;BME280;15455;53.376;-6.262;2023-05-14T01:58:27;101933.09;;;10.58;100.00
28167;BME280;15455;53.376;-6.262;2023-05-14T02:01:12;101940.91;;;10.58;100.00
28167;BME280;15455;53.376;-6.262;2023-05-14T02:03:58;101940.91;;;10.57;100.00
28167;BME280;15455;53.376;-6.262;2023-05-14T02:06:45;101935.69;;;10.57;100.00
28167;BME280;15455;53.376;-6.262;2023-05-14T02:09:30;101943.47;;;10.55;100.00
28167;BME280;15455;53.376;-6.262;2023-05-14T02:12:15;101938.28;;;10.57;100.00
28167;BME280;15455;53.376;-6.262;2023-05-14T02:15:02;101934.78;;;10.55;100.00
28167;BME280;15455;53.376;-6.262;2023-05-14T02:17:48;101928.63;;;10.53;100.00
28167;BME280;15455;53.376;-6.262;2023-05-14T02:20:33;101930.34;;;10.51;100.00
28167;BME280;15455;53.376;-6.262;2023-05-14T02:23:18;101927.69;;;10.46;100.00
28167;BME280;15455;53.376;-6.262;2023-05-14T02:26:15;101927.59;;;10.41;100.00
28167;BME280;15455;53.376;-6.262;2023-05-14T02:29:01;101924.91;;;10.38;100.00
28167;BME280;15455;53.376;-6.262;2023-05-14T02:31:46;101928.22;;;10.31;100.00
28167;BME280;15455;53.376;-6.262;2023-05-14T02:34:33;101917.56;;;10.17;100.00
28167;BME280;15455;53.376;-6.262;2023-05-14T02:37:18;101913.84;;;10.04;100.00
28167;BME280;15455;53.376;-6.262;2023-05-14T02:40:05;101927.53;;;9.91;100.00
28167;BME280;15455;53.376;-6.262;2023-05-14T02:42:50;101917.78;;;9.81;100.00
28167;BME280;15455;53.376;-6.262;2023-05-14T02:45:37;101923.63;;;9.70;100.00
28167;BME280;15455;53.376;-6.262;2023-05-14T02:48:22;101921.75;;;9.63;100.00
28167;BME280;15455;53.376;-6.262;2023-05-14T02:51:09;101924.19;;;9.55;100.00
28167;BME280;15455;53.376;-6.262;2023-05-14T02:53:55;101914.47;;;9.47;100.00
28167;BME280;15455;53.376;-6.262;2023-05-14T02:56:40;101907.31;;;9.36;100.00
28167;BME280;15455;53.376;-6.262;2023-05-14T02:59:26;101908.88;;;9.30;100.00
28167;BME280;15455;53.376;-6.262;2023-05-14T03:02:12;101917.44;;;9.24;100.00
28167;BME280;15455;53.376;-6.262;2023-05-14T03:04:57;101911.25;;;9.17;100.00
28167;BME280;15455;53.376;-6.262;2023-05-14T03:07:43;101917.25;;;9.15;100.00
28167;BME280;15455;53.376;-6.262;2023-05-14T03:10:32;101912.78;;;9.09;100.00
28167;BME280;15455;53.376;-6.262;2023-05-14T03:13:17;101918.88;;;9.10;100.00
28167;BME280;15455;53.376;-6.262;2023-05-14T03:16:05;101916.13;;;9.03;100.00
28167;BME280;15455;53.376;-6.262;2023-05-14T03:18:50;101911.69;;;8.99;100.00
28167;BME280;15455;53.376;-6.262;2023-05-14T03:21:36;101915.03;;;8.94;100.00
28167;BME280;15455;53.376;-6.262;2023-05-14T03:24:21;101914.03;;;8.87;100.00
28167;BME280;15455;53.376;-6.262;2023-05-14T03:27:07;101914.84;;;8.84;100.00
28167;BME280;15455;53.376;-6.262;2023-05-14T03:29:55;101910.34;;;8.79;100.00
28167;BME280;15455;53.376;-6.262;2023-05-14T03:32:40;101912.81;;;8.73;100.00
28167;BME280;15455;53.376;-6.262;2023-05-14T03:35:27;101914.44;;;8.67;100.00
28167;BME280;15455;53.376;-6.262;2023-05-14T03:38:12;101907.38;;;8.63;100.00
28167;BME280;15455;53.376;-6.262;2023-05-14T03:40:58;101909.13;;;8.63;100.00
28167;BME280;15455;53.376;-6.262;2023-05-14T03:43:46;101909.16;;;8.64;100.00
28167;BME280;15455;53.376;-6.262;2023-05-14T03:46:32;101906.69;;;8.71;100.00
28167;BME280;15455;53.376;-6.262;2023-05-14T03:49:17;101905.81;;;8.70;100.00
28167;BME280;15455;53.376;-6.262;2023-05-14T03:52:03;101902.41;;;8.73;100.00
28167;BME280;15455;53.376;-6.262;2023-05-14T03:54:49;101887.63;;;8.72;100.00
28167;BME280;15455;53.376;-6.262;2023-05-14T03:57:35;101896.38;;;8.75;100.00
28167;BME280;15455;53.376;-6.262;2023-05-14T04:00:20;101899.97;;;8.80;100.00
28167;BME280;15455;53.376;-6.262;2023-05-14T04:03:08;101895.75;;;8.84;100.00
28167;BME280;15455;53.376;-6.262;2023-05-14T04:05:54;101891.38;;;8.83;100.00
28167;BME280;15455;53.376;-6.262;2023-05-14T04:08:40;101887.97;;;8.85;100.00
28167;BME280;15455;53.376;-6.262;2023-05-14T04:11:26;101882.78;;;8.87;100.00
28167;BME280;15455;53.376;-6.262;2023-05-14T04:14:11;101881.94;;;8.88;100.00
28167;BME280;15455;53.376;-6.262;2023-05-14T04:16:57;101887.09;;;8.86;100.00
28167;BME280;15455;53.376;-6.262;2023-05-14T04:19:47;101874.25;;;8.93;100.00
28167;BME280;15455;53.376;-6.262;2023-05-14T04:22:33;101877.03;;;9.02;100.00
28167;BME280;15455;53.376;-6.262;2023-05-14T04:25:18;101874.50;;;9.05;100.00
28167;BME280;15455;53.376;-6.262;2023-05-14T04:28:04;101879.75;;;9.07;100.00
28167;BME280;15455;53.376;-6.262;2023-05-14T04:30:50;101869.38;;;9.10;100.00
28167;BME280;15455;53.376;-6.262;2023-05-14T04:33:39;101865.97;;;9.12;100.00
28167;BME280;15455;53.376;-6.262;2023-05-14T04:36:24;101863.38;;;9.12;100.00
28167;BME280;15455;53.376;-6.262;2023-05-14T04:39:10;101871.19;;;9.12;100.00
28167;BME280;15455;53.376;-6.262;2023-05-14T04:41:56;101865.22;;;9.18;100.00
28167;BME280;15455;53.376;-6.262;2023-05-14T04:44:42;101861.00;;;9.23;100.00
28167;BME280;15455;53.376;-6.262;2023-05-14T04:47:27;101865.41;;;9.27;100.00
28167;BME280;15455;53.376;-6.262;2023-05-14T04:50:14;101860.19;;;9.27;100.00
28167;BME280;15455;53.376;-6.262;2023-05-14T04:52:59;101863.75;;;9.29;100.00
28167;BME280;15455;53.376;-6.262;2023-05-14T04:55:45;101862.16;;;9.36;100.00
28167;BME280;15455;53.376;-6.262;2023-05-14T04:58:30;101849.16;;;9.37;100.00
28167;BME280;15455;53.376;-6.262;2023-05-14T05:01:19;101864.03;;;9.43;100.00
28167;BME280;15455;53.376;-6.262;2023-05-14T05:04:05;101855.38;;;9.46;100.00
28167;BME280;15455;53.376;-6.262;2023-05-14T05:06:50;101860.72;;;9.52;100.00
28167;BME280;15455;53.376;-6.262;2023-05-14T05:09:35;101843.47;;;9.59;100.00
28167;BME280;15455;53.376;-6.262;2023-05-14T05:12:20;101851.38;;;9.65;100.00
28167;BME280;15455;53.376;-6.262;2023-05-14T05:15:07;101860.19;;;9.70;100.00
28167;BME280;15455;53.376;-6.262;2023-05-14T05:17:53;101856.81;;;9.76;100.00
28167;BME280;15455;53.376;-6.262;2023-05-14T05:20:39;101852.63;;;9.82;100.00
28167;BME280;15455;53.376;-6.262;2023-05-14T05:23:24;101852.72;;;9.88;100.00
28167;BME280;15455;53.376;-6.262;2023-05-14T05:26:10;101851.06;;;9.94;100.00
28167;BME280;15455;53.376;-6.262;2023-05-14T05:28:55;101842.44;;;9.98;100.00
28167;BME280;15455;53.376;-6.262;2023-05-14T05:31:40;101843.44;;;10.04;100.00
28167;BME280;15455;53.376;-6.262;2023-05-14T05:34:26;101842.69;;;10.12;100.00
28167;BME280;15455;53.376;-6.262;2023-05-14T05:37:12;101836.69;;;10.16;100.00
28167;BME280;15455;53.376;-6.262;2023-05-14T05:39:58;101828.03;;;10.18;100.00
28167;BME280;15455;53.376;-6.262;2023-05-14T05:42:44;101836.78;;;10.23;100.00
28167;BME280;15455;53.376;-6.262;2023-05-14T05:45:29;101829.03;;;10.28;100.00
28167;BME280;15455;53.376;-6.262;2023-05-14T05:48:15;101821.31;;;10.33;100.00
28167;BME280;15455;53.376;-6.262;2023-05-14T05:51:01;101822.28;;;10.39;100.00
28167;BME280;15455;53.376;-6.262;2023-05-14T05:53:46;101824.97;;;10.44;100.00
28167;BME280;15455;53.376;-6.262;2023-05-14T05:56:32;101825.09;;;10.50;100.00
28167;BME280;15455;53.376;-6.262;2023-05-14T05:59:17;101818.22;;;10.57;100.00
28167;BME280;15455;53.376;-6.262;2023-05-14T06:02:03;101817.44;;;10.64;100.00
28167;BME280;15455;53.376;-6.262;2023-05-14T06:04:48;101810.56;;;10.69;100.00
28167;BME280;15455;53.376;-6.262;2023-05-14T06:07:34;101804.53;;;10.73;100.00
28167;BME280;15455;53.376;-6.262;2023-05-14T06:10:20;101805.47;;;10.80;100.00
28167;BME280;15455;53.376;-6.262;2023-05-14T06:13:06;101814.25;;;10.84;100.00
28167;BME280;15455;53.376;-6.262;2023-05-14T06:15:52;101808.22;;;10.88;100.00
28167;BME280;15455;53.376;-6.262;2023-05-14T06:18:37;101814.34;;;10.91;100.00
28167;BME280;15455;53.376;-6.262;2023-05-14T06:21:23;101826.59;;;10.95;100.00
28167;BME280;15455;53.376;-6.262;2023-05-14T06:24:09;101825.75;;;10.98;100.00
28167;BME280;15455;53.376;-6.262;2023-05-14T06:26:55;101820.56;;;11.01;100.00
28167;BME280;15455;53.376;-6.262;2023-05-14T06:29:40;101818.00;;;11.04;100.00
28167;BME280;15455;53.376;-6.262;2023-05-14T06:32:26;101812.81;;;11.09;100.00
28167;BME280;15455;53.376;-6.262;2023-05-14T06:35:11;101810.25;;;11.12;100.00
28167;BME280;15455;53.376;-6.262;2023-05-14T06:37:56;101813.81;;;11.19;100.00
28167;BME280;15455;53.376;-6.262;2023-05-14T06:40:42;101813.88;;;11.23;100.00
28167;BME280;15455;53.376;-6.262;2023-05-14T06:43:27;101801.72;;;11.27;100.00
28167;BME280;15455;53.376;-6.262;2023-05-14T06:46:13;101800.03;;;11.32;100.00
28167;BME280;15455;53.376;-6.262;2023-05-14T06:48:59;101803.59;;;11.39;100.00
28167;BME280;15455;53.376;-6.262;2023-05-14T06:51:44;101797.59;;;11.47;100.00
28167;BME280;15455;53.376;-6.262;2023-05-14T06:54:30;101795.97;;;11.59;100.00
28167;BME280;15455;53.376;-6.262;2023-05-14T06:57:16;101789.13;;;11.72;100.00
28167;BME280;15455;53.376;-6.262;2023-05-14T07:00:01;101786.63;;;11.84;100.00
28167;BME280;15455;53.376;-6.262;2023-05-14T07:02:48;101778.06;;;11.97;100.00
28167;BME280;15455;53.376;-6.262;2023-05-14T07:05:33;101779.00;;;12.09;100.00
28167;BME280;15455;53.376;-6.262;2023-05-14T07:08:19;101763.38;;;12.16;100.00
28167;BME280;15455;53.376;-6.262;2023-05-14T07:11:04;101759.03;;;12.22;100.00
28167;BME280;15455;53.376;-6.262;2023-05-14T07:13:50;101755.56;;;12.24;100.00
28167;BME280;15455;53.376;-6.262;2023-05-14T07:16:35;101744.25;;;12.28;100.00
28167;BME280;15455;53.376;-6.262;2023-05-14T07:19:21;101746.91;;;12.33;100.00
28167;BME280;15455;53.376;-6.262;2023-05-14T07:22:06;101746.91;;;12.34;100.00
28167;BME280;15455;53.376;-6.262;2023-05-14T07:24:52;101739.97;;;12.40;100.00
28167;BME280;15455;53.376;-6.262;2023-05-14T07:27:37;101743.47;;;12.43;100.00
28167;BME280;15455;53.376;-6.262;2023-05-14T07:30:23;101753.13;;;12.54;100.00
28167;BME280;15455;53.376;-6.262;2023-05-14T07:33:09;101750.56;;;12.57;100.00
28167;BME280;15455;53.376;-6.262;2023-05-14T07:35:55;101732.22;;;12.57;100.00
28167;BME280;15455;53.376;-6.262;2023-05-14T07:38:40;101732.22;;;12.58;100.00
28167;BME280;15455;53.376;-6.262;2023-05-14T07:41:26;101733.94;;;12.59;100.00
28167;BME280;15455;53.376;-6.262;2023-05-14T07:44:11;101727.88;;;12.63;100.00
28167;BME280;15455;53.376;-6.262;2023-05-14T07:46:57;101727.88;;;12.66;100.00
28167;BME280;15455;53.376;-6.262;2023-05-14T07:49:42;101727.03;;;12.72;100.00
28167;BME280;15455;53.376;-6.262;2023-05-14T07:52:28;101730.56;;;12.80;100.00
28167;BME280;15455;53.376;-6.262;2023-05-14T07:55:13;101727.97;;;12.91;100.00
28167;BME280;15455;53.376;-6.262;2023-05-14T07:57:58;101728.88;;;13.01;100.00
28167;BME280;15455;53.376;-6.262;2023-05-14T08:00:44;101726.31;;;13.13;100.00
28167;BME280;15455;53.376;-6.262;2023-05-14T08:03:30;101726.38;;;13.33;100.00
28167;BME280;15455;53.376;-6.262;2023-05-14T08:06:16;101716.81;;;13.51;100.00
28167;BME280;15455;53.376;-6.262;2023-05-14T08:09:01;101719.44;;;13.66;100.00
28167;BME280;15455;53.376;-6.262;2023-05-14T08:11:49;101709.81;;;13.67;100.00
28167;BME280;15455;53.376;-6.262;2023-05-14T08:14:35;101721.16;;;13.70;100.00
28167;BME280;15455;53.376;-6.262;2023-05-14T08:17:20;101707.22;;;13.61;100.00
28167;BME280;15455;53.376;-6.262;2023-05-14T08:20:06;101702.81;;;13.60;100.00
28167;BME280;15455;53.376;-6.262;2023-05-14T08:22:53;101699.31;;;13.68;100.00
28167;BME280;15455;53.376;-6.262;2023-05-14T08:25:38;101698.44;;;13.85;100.00
28167;BME280;15455;53.376;-6.262;2023-05-14T08:28:24;101705.44;;;14.01;100.00
28167;BME280;15455;53.376;-6.262;2023-05-14T08:31:09;101699.28;;;14.16;100.00
28167;BME280;15455;53.376;-6.262;2023-05-14T08:33:55;101701.84;;;14.25;100.00
28167;BME280;15455;53.376;-6.262;2023-05-14T08:36:40;101697.44;;;14.46;100.00
28167;BME280;15455;53.376;-6.262;2023-05-14T08:39:26;101695.72;;;14.39;100.00
28167;BME280;15455;53.376;-6.262;2023-05-14T08:42:12;101693.13;;;14.34;100.00
28167;BME280;15455;53.376;-6.262;2023-05-14T08:45:02;101695.75;;;14.34;100.00
28167;BME280;15455;53.376;-6.262;2023-05-14T08:47:49;101698.34;;;14.40;100.00
28167;BME280;15455;53.376;-6.262;2023-05-14T08:50:36;101692.22;;;14.43;100.00
28167;BME280;15455;53.376;-6.262;2023-05-14T08:53:22;101695.72;;;14.37;100.00
28167;BME280;15455;53.376;-6.262;2023-05-14T08:56:08;101696.63;;;14.29;100.00
28167;BME280;15455;53.376;-6.262;2023-05-14T08:58:54;101699.25;;;14.24;100.00
28167;BME280;15455;53.376;-6.262;2023-05-14T09:01:47;101700.16;;;14.06;100.00
28167;BME280;15455;53.376;-6.262;2023-05-14T09:04:35;101713.31;;;13.97;100.00
28167;BME280;15455;53.376;-6.262;2023-05-14T09:07:22;101714.19;;;13.89;100.00
28167;BME280;15455;53.376;-6.262;2023-05-14T09:10:08;101706.31;;;13.80;100.00
28167;BME280;15455;53.376;-6.262;2023-05-14T09:12:54;101713.31;;;13.70;100.00
28167;BME280;15455;53.376;-6.262;2023-05-14T09:15:40;101718.56;;;13.63;100.00
28167;BME280;15455;53.376;-6.262;2023-05-14T09:18:25;101714.19;;;13.49;100.00
28167;BME280;15455;53.376;-6.262;2023-05-14T09:21:13;101721.16;;;13.46;100.00
28167;BME280;15455;53.376;-6.262;2023-05-14T09:23:59;101722.06;;;13.49;100.00
28167;BME280;15455;53.376;-6.262;2023-05-14T09:26:49;101719.44;;;13.49;100.00
28167;BME280;15455;53.376;-6.262;2023-05-14T09:29:34;101713.28;;;13.41;100.00
28167;BME280;15455;53.376;-6.262;2023-05-14T09:32:21;101715.91;;;13.43;100.00
28167;BME280;15455;53.376;-6.262;2023-05-14T09:37:56;101726.31;;;13.21;100.00
28167;BME280;15455;53.376;-6.262;2023-05-14T09:40:41;101728.09;;;13.25;100.00
28167;BME280;15455;53.376;-6.262;2023-05-14T09:43:27;101732.50;;;13.40;100.00
28167;BME280;15455;53.376;-6.262;2023-05-14T09:46:12;101740.41;;;13.46;100.00
28167;BME280;15455;53.376;-6.262;2023-05-14T09:48:58;101731.69;;;13.58;100.00
28167;BME280;15455;53.376;-6.262;2023-05-14T09:51:43;101745.66;;;13.85;100.00
28167;BME280;15455;53.376;-6.262;2023-05-14T09:54:30;101737.81;;;13.91;100.00
28167;BME280;15455;53.376;-6.262;2023-05-14T09:57:17;101724.69;;;13.99;100.00
28167;BME280;15455;53.376;-6.262;2023-05-14T10:00:03;101722.03;;;14.13;100.00
28167;BME280;15455;53.376;-6.262;2023-05-14T10:02:49;101721.97;;;14.33;100.00
28167;BME280;15455;53.376;-6.262;2023-05-14T10:05:39;101706.16;;;14.51;100.00
28167;BME280;15455;53.376;-6.262;2023-05-14T10:08:34;101715.78;;;14.58;100.00
28167;BME280;15455;53.376;-6.262;2023-05-14T10:11:23;101700.06;;;14.38;100.00
28167;BME280;15455;53.376;-6.262;2023-05-14T10:14:28;101710.63;;;14.15;100.00
28167;BME280;15455;53.376;-6.262;2023-05-14T10:17:19;101708.03;;;14.06;100.00
28167;BME280;15455;53.376;-6.262;2023-05-14T10:20:07;101705.44;;;13.97;100.00
28167;BME280;15455;53.376;-6.262;2023-05-14T10:22:54;101713.28;;;14.11;100.00
28167;BME280;15455;53.376;-6.262;2023-05-14T10:25:40;101710.63;;;14.28;100.00
28167;BME280;15455;53.376;-6.262;2023-05-14T10:28:26;101706.25;;;14.27;100.00
28167;BME280;15455;53.376;-6.262;2023-05-14T10:31:12;101707.13;;;14.18;100.00
28167;BME280;15455;53.376;-6.262;2023-05-14T10:33:57;101708.03;;;14.06;100.00
28167;BME280;15455;53.376;-6.262;2023-05-14T10:36:44;101708.06;;;14.01;100.00
28167;BME280;15455;53.376;-6.262;2023-05-14T10:39:53;101715.06;;;13.95;100.00
28167;BME280;15455;53.376;-6.262;2023-05-14T10:42:42;101715.94;;;13.89;100.00
28167;BME280;15455;53.376;-6.262;2023-05-14T10:45:28;101723.81;;;13.80;100.00
28167;BME280;15455;53.376;-6.262;2023-05-14T10:48:14;101720.31;;;13.78;100.00
28167;BME280;15455;53.376;-6.262;2023-05-14T10:51:01;101716.81;;;13.77;100.00
28167;BME280;15455;53.376;-6.262;2023-05-14T10:53:47;101721.19;;;13.86;100.00
28167;BME280;15455;53.376;-6.262;2023-05-14T10:56:33;101718.56;;;13.97;100.00
28167;BME280;15455;53.376;-6.262;2023-05-14T10:59:18;101716.81;;;13.99;100.00
28167;BME280;15455;53.376;-6.262;2023-05-14T11:02:04;101710.69;;;13.97;100.00
28167;BME280;15455;53.376;-6.262;2023-05-14T11:05:13;101718.53;;;13.73;100.00
28167;BME280;15455;53.376;-6.262;2023-05-14T11:08:03;101709.81;;;13.64;100.00
28167;BME280;15455;53.376;-6.262;2023-05-14T11:10:50;101721.19;;;13.63;100.00
28167;BME280;15455;53.376;-6.262;2023-05-14T11:13:37;101720.31;;;13.73;100.00
28167;BME280;15455;53.376;-6.262;2023-05-14T11:16:22;101715.91;;;14.04;100.00
28167;BME280;15455;53.376;-6.262;2023-05-14T11:19:10;101706.25;;;14.25;100.00
28167;BME280;15455;53.376;-6.262;2023-05-14T11:21:55;101694.81;;;14.51;100.00
28167;BME280;15455;53.376;-6.262;2023-05-14T11:24:41;101699.06;;;14.84;100.00
28167;BME280;15455;53.376;-6.262;2023-05-14T11:27:26;101686.78;;;14.85;100.00
28167;BME280;15455;53.376;-6.262;2023-05-14T11:30:16;101693.91;;;14.64;100.00
28167;BME280;15455;53.376;-6.262;2023-05-14T11:33:02;101715.06;;;13.39;100.00
28167;BME280;15455;53.376;-6.262;2023-05-14T11:35:48;101735.75;;;12.69;100.00
28167;BME280;15455;53.376;-6.262;2023-05-14T11:38:45;101754.72;;;12.27;100.00
28167;BME280;15455;53.376;-6.262;2023-05-14T11:41:35;101772.03;;;12.09;100.00
28167;BME280;15455;53.376;-6.262;2023-05-14T11:44:21;101773.53;;;11.84;100.00
28167;BME280;15455;53.376;-6.262;2023-05-14T11:47:07;101785.69;;;11.77;100.00
28167;BME280;15455;53.376;-6.262;2023-05-14T11:49:52;101781.34;;;11.81;100.00
28167;BME280;15455;53.376;-6.262;2023-05-14T11:52:41;101784.94;;;11.91;100.00
28167;BME280;15455;53.376;-6.262;2023-05-14T11:55:26;101787.72;;;12.05;100.00
28167;BME280;15455;53.376;-6.262;2023-05-14T11:58:12;101788.63;;;12.10;100.00
28167;BME280;15455;53.376;-6.262;2023-05-14T12:00:58;101785.28;;;12.29;100.00
28167;BME280;15455;53.376;-6.262;2023-05-14T12:03:44;101774.03;;;12.46;100.00
28167;BME280;15455;53.376;-6.262;2023-05-14T12:06:30;101771.44;;;12.50;100.00
28167;BME280;15455;53.376;-6.262;2023-05-14T12:09:18;101769.63;;;12.37;100.00
28167;BME280;15455;53.376;-6.262;2023-05-14T12:12:10;101767.69;;;12.13;100.00
28167;BME280;15455;53.376;-6.262;2023-05-14T12:14:58;101781.72;;;12.21;100.00
28167;BME280;15455;53.376;-6.262;2023-05-14T12:17:50;101773.06;;;12.33;100.00
28167;BME280;15455;53.376;-6.262;2023-05-14T12:20:36;101777.66;;;12.68;100.00
28167;BME280;15455;53.376;-6.262;2023-05-14T12:23:26;101746.38;;;12.99;100.00
28167;BME280;15455;53.376;-6.262;2023-05-14T12:26:13;101735.13;;;13.37;100.00
28167;BME280;15455;53.376;-6.262;2023-05-14T12:28:59;101737.81;;;13.94;100.00
28167;BME280;15455;53.376;-6.262;2023-05-14T12:31:47;101726.38;;;14.26;100.00
28167;BME280;15455;53.376;-6.262;2023-05-14T12:34:33;101726.38;;;14.41;100.00
28167;BME280;15455;53.376;-6.262;2023-05-14T12:37:21;101727.28;;;14.13;100.00
28167;BME280;15455;53.376;-6.262;2023-05-14T12:40:07;101730.81;;;13.61;100.00
28167;BME280;15455;53.376;-6.262;2023-05-14T12:42:56;101737.66;;;13.17;100.00
28167;BME280;15455;53.376;-6.262;2023-05-14T12:45:41;101760.25;;;12.78;100.00
28167;BME280;15455;53.376;-6.262;2023-05-14T12:48:27;101762.72;;;12.50;100.00
28167;BME280;15455;53.376;-6.262;2023-05-14T12:51:12;101762.56;;;12.25;100.00
28167;BME280;15455;53.376;-6.262;2023-05-14T12:53:57;101761.56;;;12.06;100.00
28167;BME280;15455;53.376;-6.262;2023-05-14T12:56:43;101765.03;;;12.05;100.00
28167;BME280;15455;53.376;-6.262;2023-05-14T12:59:28;101757.31;;;12.22;100.00
28167;BME280;15455;53.376;-6.262;2023-05-14T13:02:14;101767.97;;;12.51;100.00
28167;BME280;15455;53.376;-6.262;2023-05-14T13:05:01;101748.94;;;12.91;100.00
28167;BME280;15455;53.376;-6.262;2023-05-14T13:07:47;101743.00;;;13.40;100.00
28167;BME280;15455;53.376;-6.262;2023-05-14T13:10:33;101735.94;;;13.16;100.00
28167;BME280;15455;53.376;-6.262;2023-05-14T13:13:18;101731.50;;;12.90;100.00
28167;BME280;15455;53.376;-6.262;2023-05-14T13:16:04;101741.13;;;12.93;100.00
28167;BME280;15455;53.376;-6.262;2023-05-14T13:18:50;101733.22;;;12.91;100.00
28167;BME280;15455;53.376;-6.262;2023-05-14T13:21:35;101736.66;;;12.81;100.00
28167;BME280;15455;53.376;-6.262;2023-05-14T13:24:20;101733.16;;;12.74;100.00
28167;BME280;15455;53.376;-6.262;2023-05-14T13:27:06;101741.06;;;12.83;100.00
28167;BME280;15455;53.376;-6.262;2023-05-14T13:29:51;101729.72;;;12.92;100.00
28167;BME280;15455;53.376;-6.262;2023-05-14T13:32:36;101734.97;;;12.95;100.00
28167;BME280;15455;53.376;-6.262;2023-05-14T13:35:24;101727.19;;;13.09;100.00
28167;BME280;15455;53.376;-6.262;2023-05-14T13:38:09;101731.50;;;12.99;100.00
28167;BME280;15455;53.376;-6.262;2023-05-14T13:40:55;101732.38;;;12.98;100.00
28167;BME280;15455;53.376;-6.262;2023-05-14T13:43:47;101730.66;;;13.08;100.00
28167;BME280;15455;53.376;-6.262;2023-05-14T13:46:32;101739.44;;;13.19;100.00
28167;BME280;15455;53.376;-6.262;2023-05-14T13:49:18;101731.69;;;13.55;100.00
28167;BME280;15455;53.376;-6.262;2023-05-14T13:52:03;101728.19;;;13.85;100.00
28167;BME280;15455;53.376;-6.262;2023-05-14T13:54:49;101723.78;;;14.21;100.00
28167;BME280;15455;53.376;-6.262;2023-05-14T13:57:35;101716.66;;;14.59;100.00
28167;BME280;15455;53.376;-6.262;2023-05-14T14:00:21;101722.63;;;15.03;100.00
28167;BME280;15455;53.376;-6.262;2023-05-14T14:03:06;101716.44;;;15.11;100.00
28167;BME280;15455;53.376;-6.262;2023-05-14T14:05:52;101718.25;;;15.08;100.00
28167;BME280;15455;53.376;-6.262;2023-05-14T14:08:37;101718.25;;;15.03;100.00
28167;BME280;15455;53.376;-6.262;2023-05-14T14:11:23;101715.72;;;14.83;100.00
28167;BME280;15455;53.376;-6.262;2023-05-14T14:14:08;101713.06;;;14.91;100.00
28167;BME280;15455;53.376;-6.262;2023-05-14T14:16:53;101715.66;;;14.94;100.00